• Join FlightAware (Why Join?)
  • Login
  • US Flag 
11:23AM EDT


 

Airport Tracker/Info


-or-


 

Live Flight TrackerFlight Track Log ✈ N146WB ✈ 14-Sep-2013 ✈ KALO - KOXV

Flight Track Log - Related Links

Times and Time Zones

All times are in EDT time to prevent confusion due to time zone crossing. See the N146WB flight status page for this flight to view local times or setup timezone preferences in your user account.

Time Position Orientation Groundspeed Altitude Reporting Facility
EDT Latitude Longitude Course Direction KTS MPH feet Rate Location/Type
08:21AM 42.5606 -92.4239 202° Southwest 70 81 3,200  Level Chicago Center
08:22AM 42.5356 -92.4322 194° South 81 93 4,300 780 Climbing Chicago Center
08:23AM 42.5072 -92.4469 201° Southwest 95 109 4,800 240 Climbing Chicago Center
08:24AM 42.4694 -92.4689 203° Southwest 124 143 4,800 -60 Level Chicago Center
08:25AM 42.3485 -92.5150 202° Southwest  Level FlightAware Approximate
08:25AM 42.4342 -92.4900 204° Southwest 137 158 4,700  Level Chicago Center
08:26AM 42.3138 -92.5341 202° Southwest  Level FlightAware Approximate
08:26AM 42.3983 -92.5089 201° Southwest 139 160 4,700  Level Chicago Center
08:27AM 42.3533 -92.5269 197° South 139 160 4,600 -60 Descending Chicago Center
08:28AM 42.3181 -92.5433 199° South 138 159 4,600  Level Chicago Center
08:29AM 42.2831 -92.5594 199° South 137 158 4,700  Climbing Chicago Center
08:30AM 42.2447 -92.5736 195° South 138 159 4,600  Descending Chicago Center
08:31AM 42.2089 -92.5900 199° South 139 160 4,700  Climbing Chicago Center
08:32AM 42.1742 -92.6078 201° Southwest 137 158 4,700  Level Chicago Center
08:33AM 42.1400 -92.6283 204° Southwest 137 158 4,800  Climbing Chicago Center
08:34AM 42.0986 -92.6528 204° Southwest 137 158 4,700 -60 Descending Chicago Center
08:35AM 42.0644 -92.6739 205° Southwest 136 157 4,700  Level Chicago Center
08:36AM 42.0292 -92.6925 201° Southwest 136 157 4,700 -60 Level Chicago Center
08:37AM 41.9944 -92.7125 203° Southwest 137 158 4,600 -60 Descending Chicago Center
08:38AM 41.9603 -92.7322 203° Southwest 136 157 4,600  Level Chicago Center
08:39AM 41.9250 -92.7514 202° Southwest 137 158 4,600  Level Chicago Center
08:40AM 41.8900 -92.7714 203° Southwest 137 158 4,700  Climbing Chicago Center
08:41AM 41.8533 -92.8019 212° Southwest 137 158 4,600  Descending Minneapolis Center
08:42AM 41.8208 -92.8214 204° Southwest 131 151 4,700  Climbing Minneapolis Center
08:43AM 41.7842 -92.8431 204° Southwest 133 153 4,600  Descending Minneapolis Center
08:44AM 41.7497 -92.8622 203° Southwest 134 154 4,700  Climbing Minneapolis Center
08:45AM 41.7156 -92.8817 203° Southwest 133 153 4,600  Descending Minneapolis Center
08:46AM 41.6817 -92.9008 203° Southwest 132 152 4,700  Climbing Minneapolis Center
08:47AM 41.6453 -92.9217 203° Southwest 132 152 4,700  Level Minneapolis Center
08:48AM 41.6114 -92.9406 203° Southwest 132 152 4,700  Level Minneapolis Center
08:49AM 41.5772 -92.9594 202° Southwest 133 153 4,700  Level Minneapolis Center
08:50AM 41.5419 -92.9786 202° Southwest 136 157 4,800  Climbing Minneapolis Center
08:51AM 41.5083 -92.9983 204° Southwest 135 155 4,700 -420 Descending Minneapolis Center
08:53AM 41.4381 -93.0303 199° South 133 153 3,600 -600 Descending Chicago Center
08:54AM 41.3972 -93.0494 199° South 132 152 3,000 -600 Descending Chicago Center